Time;durP1;ratioP1;P1;durP2;ratioP2;P2;SDS_P1;SDS_P2;PMS_P1;PMS_P2;Temp;Humidity;BMP_temperature;BMP_pressure;BME280_temperature;BME280_humidity;BME280_pressure;Samples;Min_cycle;Max_cycle;Signal;HPM_P1;HPM_P2
2023/08/26 00:00:09;;;;;;;6.47;2.35;;;;;;;23.06;100.00;95698.56;5087759;28;20235;-70
2023/08/26 00:02:36;;;;;;;3.22;2.25;;;;;;;22.95;100.00;95680.75;5088460;28;20200;-70
2023/08/26 00:05:03;;;;;;;3.30;2.20;;;;;;;22.98;100.00;95685.63;5088609;28;20210;-69
2023/08/26 00:07:29;;;;;;;5.15;2.30;;;;;;;23.01;100.00;95685.13;5088319;28;20754;-69
2023/08/26 00:09:57;;;;;;;3.33;1.80;;;;;;;23.17;100.00;95702.91;5088500;28;20230;-69
2023/08/26 00:12:24;;;;;;;3.17;1.98;;;;;;;22.95;100.00;95718.38;5088461;28;20200;-70
2023/08/26 00:14:50;;;;;;;4.45;2.40;;;;;;;23.11;100.00;95722.78;5088458;28;20650;-69
2023/08/26 00:17:18;;;;;;;4.82;1.73;;;;;;;23.23;100.00;95708.00;5087844;28;20200;-69
2023/08/26 00:19:45;;;;;;;3.65;2.13;;;;;;;23.22;100.00;95717.13;5088194;28;20228;-69
2023/08/26 00:22:12;;;;;;;6.00;2.15;;;;;;;23.02;100.00;95722.47;5088165;28;20218;-69
2023/08/26 00:24:39;;;;;;;3.58;2.08;;;;;;;23.15;100.00;95719.25;5088192;28;20188;-69
2023/08/26 00:27:07;;;;;;;4.05;2.20;;;;;;;23.09;100.00;95736.47;5088182;28;20207;-69
2023/08/26 00:29:33;;;;;;;4.15;2.33;;;;;;;22.88;100.00;95733.97;5089685;28;20200;-69
2023/08/26 00:32:00;;;;;;;3.20;2.08;;;;;;;22.87;100.00;95743.94;5092464;28;20290;-69
2023/08/26 00:34:26;;;;;;;3.35;2.03;;;;;;;23.02;100.00;95762.00;5092345;28;20203;-69
2023/08/26 00:36:53;;;;;;;3.63;1.92;;;;;;;23.14;100.00;95776.00;5092299;28;20598;-69
2023/08/26 00:39:19;;;;;;;5.32;2.20;;;;;;;22.93;100.00;95801.16;5092054;28;20207;-69
2023/08/26 00:41:46;;;;;;;5.47;2.20;;;;;;;22.49;100.00;95799.09;5092102;28;20238;-69
2023/08/26 00:44:14;;;;;;;4.63;2.00;;;;;;;22.85;100.00;95809.75;5092073;28;20210;-69
2023/08/26 00:46:41;;;;;;;5.18;2.67;;;;;;;22.68;100.00;95804.56;5091687;28;20222;-69
2023/08/26 00:49:08;;;;;;;6.03;2.80;;;;;;;22.76;100.00;95792.53;5091957;28;20203;-69
2023/08/26 00:51:36;;;;;;;5.00;2.22;;;;;;;22.62;100.00;95796.75;5092004;28;20216;-69
2023/08/26 00:54:04;;;;;;;4.82;2.85;;;;;;;22.45;100.00;95788.03;5092014;28;20625;-69
2023/08/26 00:56:30;;;;;;;4.95;3.17;;;;;;;22.50;100.00;95795.34;5091693;28;20665;-69
2023/08/26 00:58:57;;;;;;;4.72;2.42;;;;;;;22.53;100.00;95817.13;5091374;28;20673;-69
2023/08/26 01:01:25;;;;;;;8.70;3.22;;;;;;;22.67;100.00;95807.53;5091720;28;20234;-69
2023/08/26 01:03:52;;;;;;;6.60;2.60;;;;;;;22.92;100.00;95799.56;5091988;28;20200;-69
2023/08/26 01:06:19;;;;;;;4.90;2.63;;;;;;;22.84;100.00;95808.13;5091490;28;20223;-70
2023/08/26 01:08:45;;;;;;;6.05;2.85;;;;;;;22.89;100.00;95821.59;5091611;28;20203;-70
2023/08/26 01:11:18;;;;;;;6.57;2.83;;;;;;;22.92;100.00;95823.72;5091595;28;20215;-71
2023/08/26 01:14:01;;;;;;;5.18;2.85;;;;;;;22.58;100.00;95819.00;5091921;28;20202;-70
2023/08/26 01:16:32;;;;;;;6.05;2.95;;;;;;;22.84;100.00;95818.88;5091465;28;20581;-70
2023/08/26 01:18:59;;;;;;;6.60;3.53;;;;;;;22.91;100.00;95804.13;5091665;28;20227;-70
2023/08/26 01:21:32;;;;;;;4.45;2.55;;;;;;;23.02;100.00;95800.41;5091199;28;20269;-69
2023/08/26 01:24:00;;;;;;;7.28;2.70;;;;;;;23.00;100.00;95791.00;5091072;28;20199;-70
2023/08/26 01:26:26;;;;;;;5.63;2.60;;;;;;;22.91;100.00;95803.31;5090663;28;20211;-70
2023/08/26 01:28:53;;;;;;;4.80;2.20;;;;;;;22.90;100.00;95805.19;5091513;28;20200;-70
2023/08/26 01:31:22;;;;;;;4.32;2.50;;;;;;;22.81;100.00;95811.31;5091023;28;20615;-69
2023/08/26 01:34:05;;;;;;;5.50;2.42;;;;;;;22.90;100.00;95817.84;5091425;28;20202;-69
2023/08/26 01:36:35;;;;;;;5.70;2.67;;;;;;;23.02;100.00;95803.09;5090443;28;20207;-69
2023/08/26 01:39:04;;;;;;;4.25;2.35;;;;;;;23.09;100.00;95813.59;5091198;28;20261;-69
2023/08/26 01:41:32;;;;;;;7.43;3.10;;;;;;;22.96;100.00;95822.13;5090390;28;20230;-69
2023/08/26 01:44:00;;;;;;;5.43;2.85;;;;;;;23.22;100.00;95816.63;5091060;28;20580;-69
2023/08/26 01:46:36;;;;;;;4.68;2.95;;;;;;;23.46;100.00;95826.63;5090107;28;20210;-69
2023/08/26 01:49:03;;;;;;;4.18;2.45;;;;;;;23.32;100.00;95840.84;5090885;28;20199;-69
2023/08/26 01:51:30;;;;;;;4.25;2.50;;;;;;;23.22;100.00;95846.19;5090912;28;20208;-69
2023/08/26 01:53:56;;;;;;;6.32;3.20;;;;;;;23.15;100.00;95850.19;5091050;28;20784;-69
2023/08/26 01:56:24;;;;;;;4.50;2.47;;;;;;;23.29;100.00;95844.03;5090602;28;20202;-69
2023/08/26 01:58:51;;;;;;;4.28;2.92;;;;;;;23.13;100.00;95834.34;5090836;28;20204;-69
2023/08/26 02:01:18;;;;;;;4.53;2.58;;;;;;;23.28;100.00;95834.38;5090310;28;20228;-69
2023/08/26 02:03:45;;;;;;;9.18;3.17;;;;;;;22.76;100.00;95839.00;5090739;28;20204;-69
2023/08/26 02:06:11;;;;;;;4.85;2.63;;;;;;;23.01;100.00;95836.41;5090411;28;20214;-69
2023/08/26 02:08:38;;;;;;;5.43;3.13;;;;;;;23.02;100.00;95843.41;5090427;28;20751;-69
2023/08/26 02:11:04;;;;;;;3.67;2.25;;;;;;;22.98;100.00;95842.31;5090517;28;20216;-69
2023/08/26 02:13:33;;;;;;;4.95;3.00;;;;;;;23.29;100.00;95827.13;5090519;28;20199;-69
2023/08/26 02:15:59;;;;;;;5.05;2.72;;;;;;;23.47;100.00;95830.94;5090055;28;20692;-69
2023/08/26 02:18:26;;;;;;;5.82;2.78;;;;;;;23.22;100.00;95845.38;5090506;28;20286;-69
2023/08/26 02:20:52;;;;;;;4.65;2.25;;;;;;;23.18;100.00;95844.28;5090332;28;20600;-69
2023/08/26 02:23:19;;;;;;;8.93;3.17;;;;;;;22.92;100.00;95832.59;5090186;28;20325;-69
2023/08/26 02:25:45;;;;;;;6.65;3.97;;;;;;;22.89;100.00;95835.03;5090043;28;20192;-69
2023/08/26 02:28:12;;;;;;;7.30;3.22;;;;;;;22.73;100.00;95830.63;5090237;28;20282;-69
2023/08/26 02:30:39;;;;;;;5.03;2.75;;;;;;;22.66;100.00;95827.38;5089764;28;20228;-69
2023/08/26 02:33:08;;;;;;;6.85;3.33;;;;;;;22.75;100.00;95809.69;5090297;28;20206;-69
2023/08/26 02:35:35;;;;;;;4.82;2.60;;;;;;;22.82;100.00;95807.56;5089801;28;20573;-70
2023/08/26 02:38:02;;;;;;;7.13;3.30;;;;;;;22.82;100.00;95807.56;5089912;28;20673;-70
2023/08/26 02:40:29;;;;;;;7.05;3.08;;;;;;;22.77;100.00;95818.28;5089741;28;20579;-70
2023/08/26 02:42:55;;;;;;;5.40;3.28;;;;;;;22.59;100.00;95818.75;5089136;28;20198;-70
2023/08/26 02:45:22;;;;;;;5.82;2.88;;;;;;;22.52;100.00;95828.13;5089768;28;20293;-70
2023/08/26 02:47:50;;;;;;;5.93;3.08;;;;;;;22.62;100.00;95846.97;5089741;28;20199;-70
2023/08/26 02:50:17;;;;;;;5.57;2.80;;;;;;;22.59;100.00;95852.84;5089462;28;20219;-70
2023/08/26 02:52:43;;;;;;;5.95;3.08;;;;;;;22.65;100.00;95860.69;5088183;28;20245;-70
2023/08/26 02:55:10;;;;;;;6.57;3.38;;;;;;;22.75;100.00;95869.59;5089792;28;20199;-70
2023/08/26 02:57:37;;;;;;;5.18;2.65;;;;;;;22.50;100.00;95870.53;5089070;28;20283;-70
2023/08/26 03:00:04;;;;;;;8.13;3.38;;;;;;;22.44;100.00;95872.38;5089345;28;20215;-70
2023/08/26 03:02:30;;;;;;;5.93;3.05;;;;;;;22.39;100.00;95872.34;5089425;28;20227;-70
2023/08/26 03:04:58;;;;;;;6.70;3.13;;;;;;;22.46;100.00;95866.75;5089463;28;20210;-70
2023/08/26 03:07:25;;;;;;;6.22;2.75;;;;;;;22.47;100.00;95871.84;5080043;22;20572;-67
2023/08/26 03:09:51;;;;;;;7.18;3.20;;;;;;;22.57;100.00;95877.31;5029479;28;20284;-67
2023/08/26 03:12:18;;;;;;;6.30;3.10;;;;;;;22.60;100.00;95876.78;5029593;28;20198;-67
2023/08/26 03:14:44;;;;;;;6.22;2.85;;;;;;;22.75;100.00;95868.81;5029557;28;20209;-67
2023/08/26 03:17:11;;;;;;;5.65;3.00;;;;;;;22.75;100.00;95880.34;5028994;28;20236;-67
2023/08/26 03:19:38;;;;;;;7.68;3.50;;;;;;;22.65;100.00;95876.00;5029135;28;20201;-67
2023/08/26 03:22:06;;;;;;;6.13;3.15;;;;;;;22.75;100.00;95877.66;5029365;28;20228;-66
2023/08/26 03:24:35;;;;;;;6.22;3.42;;;;;;;22.90;100.00;95885.00;5029724;28;20208;-67
2023/08/26 03:27:02;;;;;;;6.45;2.83;;;;;;;22.66;100.00;95883.78;5029151;28;20230;-67
2023/08/26 03:29:29;;;;;;;8.63;3.33;;;;;;;22.64;100.00;95877.88;5029266;28;20214;-67
2023/08/26 03:31:55;;;;;;;7.05;3.28;;;;;;;22.63;100.00;95894.25;5029320;28;20194;-67
2023/08/26 03:34:22;;;;;;;6.20;3.00;;;;;;;22.64;100.00;95888.59;5029193;28;20244;-66
2023/08/26 03:36:48;;;;;;;6.45;3.20;;;;;;;22.57;100.00;95885.34;5029663;28;20218;-66
2023/08/26 03:39:16;;;;;;;8.45;3.50;;;;;;;22.72;100.00;95886.25;5028698;28;20275;-66
2023/08/26 03:41:43;;;;;;;5.57;3.00;;;;;;;22.47;100.00;95898.72;5028938;28;20223;-66
2023/08/26 03:44:09;;;;;;;6.13;3.13;;;;;;;22.36;100.00;95913.13;5029384;28;20229;-66
2023/08/26 03:46:36;;;;;;;9.00;3.50;;;;;;;22.51;100.00;95915.91;5028872;28;20198;-67
2023/08/26 03:49:03;;;;;;;6.90;3.67;;;;;;;22.63;100.00;95913.84;5028774;28;20217;-66
2023/08/26 03:51:30;;;;;;;7.32;3.35;;;;;;;22.58;100.00;95910.31;5028923;28;20201;-67
2023/08/26 03:53:56;;;;;;;5.45;3.30;;;;;;;22.55;100.00;95921.59;5028865;28;20711;-67
2023/08/26 03:56:24;;;;;;;7.15;3.40;;;;;;;22.74;100.00;95918.22;5028624;28;20675;-67
2023/08/26 03:58:56;;;;;;;5.75;3.88;;;;;;;22.61;100.00;95916.00;5028913;28;20208;-67
2023/08/26 04:01:22;;;;;;;7.75;3.42;;;;;;;22.64;100.00;95926.22;5028470;28;20311;-67
2023/08/26 04:03:51;;;;;;;5.65;3.25;;;;;;;22.85;100.00;95930.66;5028563;28;20201;-67
2023/08/26 04:06:17;;;;;;;10.77;3.75;;;;;;;22.78;100.00;95930.06;5028457;28;20205;-67
2023/08/26 04:08:45;;;;;;;6.47;3.30;;;;;;;23.06;100.00;95927.03;5028709;28;20257;-67
2023/08/26 04:11:12;;;;;;;5.95;3.42;;;;;;;23.00;100.00;95914.63;5028817;28;20212;-67
2023/08/26 04:13:40;;;;;;;6.65;3.15;;;;;;;23.00;100.00;95922.69;5028644;28;20198;-67
2023/08/26 04:16:07;;;;;;;5.20;3.10;;;;;;;22.92;100.00;95928.53;5028503;28;20606;-67
2023/08/26 04:18:33;;;;;;;5.35;2.92;;;;;;;22.95;100.00;95939.59;5028453;28;20228;-66
2023/08/26 04:21:00;;;;;;;6.55;3.15;;;;;;;22.96;100.00;95929.63;5028909;28;20226;-67
2023/08/26 04:23:27;;;;;;;9.68;3.60;;;;;;;22.82;100.00;95933.84;5028643;28;20208;-67
2023/08/26 04:25:59;;;;;;;5.50;3.13;;;;;;;23.12;100.00;95928.69;5028739;28;20209;-67
2023/08/26 04:28:26;;;;;;;7.15;3.30;;;;;;;22.89;100.00;95921.00;5028215;28;20226;-66
2023/08/26 04:30:53;;;;;;;7.45;3.10;;;;;;;;;;5028502;28;20202;-67
2023/08/26 04:33:20;;;;;;;5.50;3.05;;;;;;;22.86;100.00;95927.72;5028440;28;20212;-67
2023/08/26 04:35:46;;;;;;;7.68;3.35;;;;;;;22.85;100.00;95927.97;5028449;28;20209;-67
2023/08/26 04:38:13;;;;;;;8.00;3.15;;;;;;;22.71;100.00;95922.25;5028472;28;20221;-67
2023/08/26 04:40:41;;;;;;;7.63;3.40;;;;;;;22.81;100.00;95930.38;5028239;28;20213;-67
2023/08/26 04:43:10;;;;;;;6.55;3.67;;;;;;;22.54;100.00;95936.88;5028818;28;20206;-67
2023/08/26 04:45:37;;;;;;;8.27;3.75;;;;;;;22.67;100.00;95942.63;5028070;28;20694;-67
2023/08/26 04:48:06;;;;;;;7.05;3.30;;;;;;;22.83;100.00;95943.53;5028400;28;20737;-65
2023/08/26 04:50:32;;;;;;;8.05;3.55;;;;;;;22.85;100.00;95949.47;5028138;28;20209;-65
2023/08/26 04:52:59;;;;;;;7.82;3.58;;;;;;;22.84;100.00;95942.47;5028427;28;20214;-65
2023/08/26 04:55:25;;;;;;;6.22;3.38;;;;;;;22.73;100.00;95935.41;5028445;28;20206;-65
2023/08/26 04:57:52;;;;;;;6.68;3.53;;;;;;;22.76;100.00;95940.28;5028113;28;20225;-65
2023/08/26 05:00:18;;;;;;;7.47;3.78;;;;;;;22.83;100.00;95952.41;5028374;28;20210;-65
2023/08/26 05:02:45;;;;;;;9.43;3.35;;;;;;;22.70;100.00;95962.81;5027972;28;20222;-64
2023/08/26 05:05:14;;;;;;;9.25;2.92;;;;;;;22.93;100.00;95954.34;5028233;28;20233;-65
2023/08/26 05:07:40;;;;;;;9.73;3.90;;;;;;;22.84;100.00;95955.91;5027968;28;20233;-65
2023/08/26 05:10:08;;;;;;;5.30;3.25;;;;;;;22.99;100.00;95953.34;5028438;28;20216;-66
2023/08/26 05:12:34;;;;;;;9.77;3.03;;;;;;;22.85;100.00;95961.03;5027809;28;20198;-65
2023/08/26 05:15:01;;;;;;;5.93;3.00;;;;;;;22.98;100.00;95965.13;5029146;28;20209;-66
2023/08/26 05:17:28;;;;;;;6.90;3.38;;;;;;;23.05;100.00;95963.03;5031539;28;20819;-65
2023/08/26 05:19:54;;;;;;;7.13;3.78;;;;;;;23.09;100.00;95961.44;5031873;28;20204;-65
2023/08/26 05:22:22;;;;;;;7.22;3.72;;;;;;;23.24;100.00;95958.84;5031682;28;20225;-65
2023/08/26 05:24:49;;;;;;;8.52;3.63;;;;;;;23.05;100.00;95957.66;5031532;28;20202;-65
2023/08/26 05:27:16;;;;;;;5.55;3.08;;;;;;;23.11;100.00;95954.75;5031457;28;20225;-65
2023/08/26 05:29:42;;;;;;;5.05;3.22;;;;;;;23.18;100.00;95967.94;5031702;28;20201;-65
2023/08/26 05:32:09;;;;;;;7.35;3.38;;;;;;;23.19;100.00;95977.63;5031646;28;20690;-65
2023/08/26 05:34:36;;;;;;;7.28;3.75;;;;;;;23.12;100.00;95977.09;5031069;28;20202;-65
2023/08/26 05:37:02;;;;;;;4.60;2.78;;;;;;;23.23;100.00;95970.66;5031411;28;20222;-65
2023/08/26 05:39:30;;;;;;;7.82;3.35;;;;;;;23.47;100.00;95976.19;5031317;28;20225;-65
2023/08/26 05:41:56;;;;;;;6.43;3.45;;;;;;;23.25;100.00;95965.84;5031502;28;20372;-67
2023/08/26 05:44:23;;;;;;;11.77;3.58;;;;;;;23.35;100.00;95967.50;5031240;28;20210;-67
2023/08/26 05:46:49;;;;;;;7.03;3.10;;;;;;;23.38;100.00;95977.75;5031054;28;20217;-67
2023/08/26 05:49:16;;;;;;;9.48;3.83;;;;;;;23.42;100.00;95969.94;5031185;28;20205;-65
2023/08/26 05:51:42;;;;;;;8.23;3.78;;;;;;;23.46;100.00;95969.19;5031120;28;20672;-65
2023/08/26 05:54:09;;;;;;;6.68;3.03;;;;;;;23.33;100.00;95958.06;5031374;28;20212;-65
2023/08/26 05:56:37;;;;;;;6.38;4.07;;;;;;;23.46;100.00;95966.50;5030945;28;20212;-65
2023/08/26 05:59:03;;;;;;;5.75;3.25;;;;;;;23.20;100.00;95963.94;5031448;28;20216;-65
2023/08/26 06:01:30;;;;;;;6.65;3.95;;;;;;;23.23;100.00;95973.34;5030894;28;20236;-65
2023/08/26 06:03:58;;;;;;;7.63;3.75;;;;;;;23.35;100.00;95972.09;5030860;28;20204;-65
2023/08/26 06:06:25;;;;;;;6.57;3.22;;;;;;;23.30;100.00;95969.38;5030501;28;20221;-67
2023/08/26 06:08:51;;;;;;;7.50;3.60;;;;;;;23.19;100.00;95983.03;5030483;28;20206;-65
2023/08/26 06:11:18;;;;;;;6.38;3.10;;;;;;;23.34;100.00;95984.72;5030895;28;20585;-65
2023/08/26 06:13:46;;;;;;;6.22;3.42;;;;;;;23.63;100.00;95985.91;5030662;28;20205;-65
2023/08/26 06:16:16;;;;;;;7.53;3.72;;;;;;;23.45;100.00;95996.34;5030785;28;20202;-65
2023/08/26 06:18:43;;;;;;;5.43;3.38;;;;;;;23.58;100.00;95988.56;5030347;28;20224;-65
2023/08/26 06:21:09;;;;;;;6.68;3.25;;;;;;;23.47;100.00;95992.31;5030432;28;20220;-65
2023/08/26 06:23:36;;;;;;;7.57;3.15;;;;;;;23.56;100.00;95990.75;5030529;28;20225;-65
2023/08/26 06:26:03;;;;;;;5.70;3.72;;;;;;;23.58;100.00;95988.56;5030479;28;20209;-65
2023/08/26 06:28:30;;;;;;;6.80;3.10;;;;;;;23.94;100.00;95988.47;5030327;28;20225;-65
2023/08/26 06:31:02;;;;;;;7.13;3.10;;;;;;;24.36;100.00;95985.59;5030347;28;20230;-65
2023/08/26 06:33:28;;;;;;;6.68;3.22;;;;;;;24.21;100.00;95988.25;5030180;28;20217;-65
2023/08/26 06:35:55;;;;;;;7.68;3.67;;;;;;;24.32;100.00;95984.50;5030069;28;20212;-66
2023/08/26 06:38:22;;;;;;;5.57;2.92;;;;;;;24.32;100.00;95989.88;5030222;28;20226;-65
2023/08/26 06:40:54;;;;;;;8.57;3.22;;;;;;;24.18;100.00;95994.19;5029961;28;20206;-65
2023/08/26 06:43:20;;;;;;;6.72;3.10;;;;;;;24.24;100.00;95991.22;5029864;28;20230;-65
2023/08/26 06:45:47;;;;;;;6.57;3.15;;;;;;;23.61;100.00;96004.22;5028781;28;20202;-65
2023/08/26 06:48:15;;;;;;;4.65;2.10;;;;;;;23.72;100.00;96010.47;5028714;28;20222;-65
2023/08/26 06:50:41;;;;;;;5.78;2.83;;;;;;;23.38;100.00;96007.34;5028823;28;20281;-65
2023/08/26 06:53:08;;;;;;;3.30;2.08;;;;;;;23.62;100.00;96000.44;5029730;28;20219;-66
2023/08/26 06:55:36;;;;;;;3.75;2.45;;;;;;;23.69;100.00;96003.72;5028652;28;20297;-65
2023/08/26 06:58:02;;;;;;;3.92;2.50;;;;;;;23.51;100.00;96009.53;5029791;28;20605;-65
2023/08/26 07:00:29;;;;;;;7.20;3.17;;;;;;;23.58;100.00;96004.72;5029968;28;20212;-65
2023/08/26 07:02:55;;;;;;;5.47;2.70;;;;;;;23.49;100.00;96003.59;5029867;28;20250;-65
2023/08/26 07:05:23;;;;;;;4.30;2.75;;;;;;;23.85;100.00;96005.38;5030354;28;20675;-65
2023/08/26 07:07:50;;;;;;;4.32;2.72;;;;;;;23.54;100.00;96003.63;5029336;28;20236;-65
2023/08/26 07:10:16;;;;;;;7.22;1.98;;;;;;;23.27;100.00;95995.97;5029456;28;20680;-65
2023/08/26 07:12:43;;;;;;;5.20;2.03;;;;;;;23.41;100.00;95992.56;5029206;28;20198;-65
2023/08/26 07:15:10;;;;;;;6.30;1.90;;;;;;;23.54;100.00;95992.88;5029492;28;20232;-65
2023/08/26 07:17:36;;;;;;;4.93;2.10;;;;;;;23.47;100.00;95995.00;5029350;28;20229;-65
2023/08/26 07:20:04;;;;;;;3.53;1.92;;;;;;;23.54;100.00;95987.50;5029003;28;20209;-65
2023/08/26 07:22:31;;;;;;;4.88;1.83;;;;;;;23.73;100.00;95994.06;5029185;28;20221;-65
2023/08/26 07:24:58;;;;;;;5.70;1.83;;;;;;;23.56;100.00;95982.66;5029020;28;20201;-65
2023/08/26 07:27:24;;;;;;;2.63;1.50;;;;;;;23.95;100.00;95990.09;5029503;28;20222;-65
2023/08/26 07:29:51;;;;;;;6.40;2.22;;;;;;;24.15;100.00;95987.44;5028777;28;20570;-65
2023/08/26 07:32:17;;;;;;;4.88;1.75;;;;;;;23.99;100.00;95980.41;5029334;28;20263;-66
2023/08/26 07:34:44;;;;;;;4.38;1.90;;;;;;;24.15;100.00;95982.06;5028655;28;20674;-64
2023/08/26 07:37:11;;;;;;;2.60;1.55;;;;;;;24.34;100.00;95980.47;5028521;28;20722;-65
2023/08/26 07:39:39;;;;;;;3.10;1.63;;;;;;;24.23;100.00;95984.22;5028530;28;20212;-65
2023/08/26 07:42:06;;;;;;;2.38;1.70;;;;;;;24.19;100.00;95985.03;5029121;28;20238;-65
2023/08/26 07:44:33;;;;;;;3.17;1.40;;;;;;;24.34;100.00;95987.75;5028807;28;20324;-65
2023/08/26 07:46:59;;;;;;;2.80;1.45;;;;;;;24.56;100.00;95991.03;5028746;28;20711;-66
2023/08/26 07:49:26;;;;;;;5.75;1.42;;;;;;;24.49;100.00;95990.47;5029626;28;20202;-66
2023/08/26 07:51:52;;;;;;;2.35;1.30;;;;;;;24.43;100.00;95999.66;5028856;28;21057;-65
2023/08/26 07:54:19;;;;;;;2.47;1.30;;;;;;;24.23;100.00;95994.19;5028565;28;20206;-63
2023/08/26 07:56:47;;;;;;;3.25;1.67;;;;;;;24.33;100.00;96003.09;5028466;28;20229;-66
2023/08/26 07:59:13;;;;;;;3.58;1.48;;;;;;;24.10;100.00;96008.16;5027971;28;20205;-65
2023/08/26 08:01:40;;;;;;;2.05;1.27;;;;;;;24.18;100.00;95991.47;5028104;28;20854;-65
2023/08/26 08:04:07;;;;;;;2.08;1.35;;;;;;;24.06;100.00;96001.69;5028303;28;20225;-65
2023/08/26 08:06:33;;;;;;;2.25;1.27;;;;;;;24.24;100.00;96003.88;5028524;28;20686;-68
2023/08/26 08:09:00;;;;;;;1.70;1.25;;;;;;;24.20;100.00;96002.81;5028845;28;20205;-65
2023/08/26 08:11:26;;;;;;;3.47;1.65;;;;;;;24.20;100.00;96014.38;5028819;28;20209;-64
2023/08/26 08:13:54;;;;;;;1.83;0.90;;;;;;;24.42;100.00;96014.19;5028386;28;20208;-65
2023/08/26 08:16:21;;;;;;;1.88;1.05;;;;;;;24.49;100.00;96009.31;5028520;28;20205;-65
2023/08/26 08:19:01;;;;;;;2.28;1.42;;;;;;;24.78;100.00;95995.03;5028715;28;20212;-66
2023/08/26 08:21:28;;;;;;;2.90;1.13;;;;;;;24.35;100.00;95983.97;5028943;28;20198;-66
2023/08/26 08:23:54;;;;;;;3.10;1.60;;;;;;;24.49;100.00;95985.91;5028372;28;20229;-65
2023/08/26 08:26:21;;;;;;;2.72;1.38;;;;;;;24.77;100.00;95978.06;5028276;28;20212;-65
2023/08/26 08:28:47;;;;;;;5.25;1.75;;;;;;;24.70;100.00;95977.53;5028712;28;20687;-66
2023/08/26 08:31:15;;;;;;;3.63;1.60;;;;;;;24.93;100.00;95985.06;5028510;28;20202;-66
2023/08/26 08:33:42;;;;;;;5.40;1.50;;;;;;;24.68;100.00;95990.47;5028364;28;20212;-66
2023/08/26 08:36:08;;;;;;;3.95;1.67;;;;;;;24.60;100.00;95988.34;5028029;28;20224;-66
2023/08/26 08:38:35;;;;;;;4.25;1.98;;;;;;;24.54;100.00;95987.78;5028545;28;20225;-64
2023/08/26 08:41:02;;;;;;;3.80;1.35;;;;;;;24.71;100.00;95979.16;5028218;28;20202;-65
2023/08/26 08:43:30;;;;;;;4.25;1.55;;;;;;;24.74;100.00;95973.19;5028582;28;20229;-66
2023/08/26 08:45:57;;;;;;;3.75;1.30;;;;;;;24.92;100.00;95978.03;5028087;28;21128;-66
2023/08/26 08:48:26;;;;;;;3.58;1.85;;;;;;;24.98;100.00;95968.88;5028536;28;20224;-66
2023/08/26 08:50:54;;;;;;;4.38;1.20;;;;;;;25.30;100.00;95967.47;5029957;28;20651;-67
2023/08/26 08:53:27;;;;;;;2.92;1.60;;;;;;;25.05;100.00;95964.06;5030705;28;20242;-66
2023/08/26 08:55:54;;;;;;;1.92;1.30;;;;;;;25.19;100.00;95965.09;5031641;28;20202;-65
2023/08/26 08:58:22;;;;;;;3.15;1.40;;;;;;;25.19;99.80;95957.81;5031453;28;20309;-66
2023/08/26 09:00:48;;;;;;;3.03;1.55;;;;;;;25.28;100.00;95958.84;5032287;28;20672;-66
2023/08/26 09:03:16;;;;;;;2.53;1.77;;;;;;;25.82;100.00;95958.94;5031689;28;21098;-65
2023/08/26 09:05:44;;;;;;;2.15;1.30;;;;;;;25.87;100.00;95949.72;5031435;28;20671;-66
2023/08/26 09:08:11;;;;;;;5.38;1.35;;;;;;;25.82;97.13;95960.53;5031954;28;20233;-66
2023/08/26 09:10:38;;;;;;;2.67;1.55;;;;;;;25.59;100.00;95964.94;5031896;28;20202;-66
2023/08/26 09:13:05;;;;;;;2.88;1.50;;;;;;;25.79;98.76;95973.81;5031663;28;20201;-65
2023/08/26 09:15:31;;;;;;;3.85;1.50;;;;;;;26.01;94.54;95966.91;5031606;28;20251;-66
2023/08/26 09:17:58;;;;;;;2.42;1.60;;;;;;;26.06;100.00;95947.97;5031080;28;20236;-65
2023/08/26 09:20:26;;;;;;;3.95;1.30;;;;;;;25.73;100.00;95950.59;5030554;28;20198;-65
2023/08/26 09:23:03;;;;;;;1.92;1.42;;;;;;;26.33;99.40;95951.03;5031094;28;20240;-66
2023/08/26 09:25:31;;;;;;;3.78;1.42;;;;;;;25.71;99.05;95963.56;5030828;28;20231;-66
2023/08/26 09:27:58;;;;;;;3.22;1.45;;;;;;;25.85;100.00;95957.28;5031596;28;20229;-66
2023/08/26 09:30:25;;;;;;;3.17;1.70;;;;;;;26.03;100.00;95955.81;5031373;28;20212;-65
2023/08/26 09:32:52;;;;;;;2.80;1.60;;;;;;;26.45;95.83;95948.78;5031121;28;20583;-66
2023/08/26 09:35:19;;;;;;;2.85;1.70;;;;;;;26.44;98.71;95944.50;5031873;28;20206;-66
2023/08/26 09:37:47;;;;;;;5.03;1.38;;;;;;;26.20;98.30;95948.97;5030492;28;20225;-66
2023/08/26 09:40:15;;;;;;;3.03;2.05;;;;;;;26.19;95.50;95943.84;5031389;28;20210;-66
2023/08/26 09:42:42;;;;;;;8.20;1.73;;;;;;;25.98;100.00;95935.06;5031322;28;20276;-66
2023/08/26 09:45:10;;;;;;;3.58;1.45;;;;;;;26.02;100.00;95916.41;5030181;28;20232;-65
2023/08/26 09:47:37;;;;;;;1.55;1.17;;;;;;;26.02;100.00;95911.81;5030974;28;20313;-66
2023/08/26 09:50:05;;;;;;;2.15;1.23;;;;;;;25.85;100.00;95908.69;5030858;28;20198;-66
2023/08/26 09:52:41;;;;;;;4.68;1.23;;;;;;;26.13;100.00;95913.38;5030924;28;20232;-66
2023/08/26 09:55:09;;;;;;;2.25;1.30;;;;;;;26.11;99.32;95903.94;5031046;28;20219;-65
2023/08/26 09:57:37;;;;;;;3.80;1.90;;;;;;;26.07;96.10;95900.97;5030701;28;20248;-66
2023/08/26 10:00:04;;;;;;;3.22;1.75;;;;;;;25.83;98.74;95902.75;5030792;28;20206;-66
2023/08/26 10:02:33;;;;;;;3.90;1.67;;;;;;;26.00;97.85;95907.78;5030280;28;20206;-66
2023/08/26 10:05:06;;;;;;;2.10;1.48;;;;;;;26.21;98.33;95904.66;5030871;28;20217;-66
2023/08/26 10:07:34;;;;;;;3.03;1.70;;;;;;;26.12;99.19;95903.66;5030554;28;20232;-66
2023/08/26 10:10:07;;;;;;;3.45;1.70;;;;;;;26.61;94.35;95896.25;5030605;28;20206;-66
2023/08/26 10:12:40;;;;;;;5.25;1.20;;;;;;;26.84;94.58;95884.66;5030153;28;20209;-66
2023/08/26 10:15:12;;;;;;;2.03;1.02;;;;;;;26.64;93.12;95888.38;5030871;28;20205;-66
2023/08/26 10:17:41;;;;;;;6.45;1.33;;;;;;;27.13;87.50;95870.81;5030853;28;20226;-66
2023/08/26 10:20:09;;;;;;;5.03;1.40;;;;;;;27.03;90.60;95870.13;5029707;28;20652;-66
2023/08/26 10:22:37;;;;;;;2.35;1.23;;;;;;;26.64;93.68;95874.03;5030395;28;20210;-66
2023/08/26 10:25:05;;;;;;;4.72;2.38;;;;;;;26.57;95.46;95873.56;5030167;28;20766;-66
2023/08/26 10:27:32;;;;;;;3.53;1.70;;;;;;;26.41;93.29;95877.50;5030537;28;20233;-66
2023/08/26 10:30:00;;;;;;;9.07;1.60;;;;;;;26.81;94.69;95871.72;5030220;28;20208;-66
2023/08/26 10:32:28;;;;;;;3.38;1.58;;;;;;;26.87;95.80;95876.78;5030508;28;20205;-66
2023/08/26 10:34:56;;;;;;;5.57;2.08;;;;;;;26.39;94.55;95868.88;5030403;28;20194;-66
2023/08/26 10:37:25;;;;;;;3.00;1.55;;;;;;;26.76;96.42;95864.44;5030006;28;20225;-66
2023/08/26 10:39:52;;;;;;;2.75;1.52;;;;;;;26.78;100.00;95881.22;5028655;28;20664;-66
2023/08/26 10:42:19;;;;;;;3.35;1.48;;;;;;;26.90;99.63;95892.44;5029786;28;20219;-66
2023/08/26 10:44:47;;;;;;;2.70;1.67;;;;;;;26.82;98.58;95884.94;5030595;28;20232;-66
2023/08/26 10:47:34;;;;;;;2.20;1.30;;;;;;;27.27;92.45;95892.59;5029618;28;20711;-66
2023/08/26 10:50:18;;;;;;;2.65;1.38;;;;;;;27.22;91.16;95889.94;5030215;28;20248;-66
2023/08/26 10:52:45;;;;;;;5.32;1.67;;;;;;;27.17;90.06;95892.69;5029889;28;20206;-66
2023/08/26 10:55:20;;;;;;;2.95;1.73;;;;;;;27.56;86.26;95880.59;5030292;28;20212;-66
2023/08/26 10:58:09;;;;;;;2.17;1.25;;;;;;;27.48;87.46;95877.69;5029709;28;20233;-66
2023/08/26 11:00:37;;;;;;;1.63;1.20;;;;;;;27.69;87.47;95880.69;5030509;28;20217;-65
2023/08/26 11:03:08;;;;;;;6.07;1.30;;;;;;;27.71;88.95;95883.09;5029753;28;20596;-65
2023/08/26 11:05:36;;;;;;;2.30;1.70;;;;;;;27.21;92.00;95875.63;5030047;28;20570;-66
2023/08/26 11:08:03;;;;;;;2.33;1.33;;;;;;;27.62;91.04;95870.50;5029708;28;20234;-66
2023/08/26 11:10:31;;;;;;;4.40;1.77;;;;;;;27.42;93.02;95868.84;5029207;28;20208;-66
2023/08/26 11:12:58;;;;;;;3.95;1.40;;;;;;;27.46;85.63;95872.59;5029234;28;20205;-66
2023/08/26 11:15:24;;;;;;;4.28;1.98;;;;;;;27.57;87.55;95874.09;5029387;28;20212;-66
2023/08/26 11:17:51;;;;;;;1.98;1.35;;;;;;;27.22;89.03;95858.25;5029691;28;20710;-66
2023/08/26 11:20:19;;;;;;;4.80;1.40;;;;;;;26.92;100.00;95857.81;5029458;28;20588;-66
2023/08/26 11:22:46;;;;;;;4.45;1.63;;;;;;;26.76;100.00;95847.44;5029545;28;20212;-66
2023/08/26 11:25:14;;;;;;;3.50;1.60;;;;;;;26.27;100.00;95838.66;5028972;28;20226;-66
2023/08/26 11:27:41;;;;;;;9.63;1.60;;;;;;;26.26;97.78;95834.38;5019661;28;20730;-66